createdAt,value
2022-12-26T00:02:29.855Z,7.78
2022-12-26T00:07:32.608Z,9.05
2022-12-26T00:12:35.656Z,8.50
2022-12-26T00:17:38.470Z,8.15
2022-12-26T00:22:41.121Z,8.77
2022-12-26T00:27:44.093Z,8.75
2022-12-26T00:32:47.124Z,7.22
2022-12-26T00:37:49.888Z,8.23
2022-12-26T00:42:54.502Z,10.15
2022-12-26T00:47:57.147Z,8.73
2022-12-26T00:52:59.844Z,9.60
2022-12-26T00:58:02.672Z,9.55
2022-12-26T01:03:08.379Z,8.20
2022-12-26T01:08:21.492Z,10.55
2022-12-26T01:13:27.011Z,8.68
2022-12-26T01:18:30.003Z,9.13
2022-12-26T01:23:32.652Z,9.25
2022-12-26T01:28:35.413Z,9.70
2022-12-26T01:33:38.331Z,12.40
2022-12-26T01:38:41.042Z,11.55
2022-12-26T01:43:49.438Z,11.88
2022-12-26T01:48:53.949Z,12.70
2022-12-26T01:54:39.811Z,11.85
2022-12-26T01:59:25.570Z,13.75
2022-12-26T02:04:50.603Z,13.65
2022-12-26T02:09:53.566Z,14.18
2022-12-26T02:14:58.083Z,12.15
2022-12-26T02:25:40.661Z,13.55
2022-12-26T02:31:06.145Z,12.75
2022-12-26T02:36:15.023Z,13.88
2022-12-26T02:41:17.643Z,10.70
2022-12-26T02:46:44.770Z,12.73
2022-12-26T02:52:24.892Z,14.57
2022-12-26T02:58:01.444Z,15.05
2022-12-26T03:03:41.431Z,12.90
2022-12-26T03:09:06.014Z,11.02
2022-12-26T03:14:19.706Z,14.27
2022-12-26T03:19:24.293Z,14.23
2022-12-26T03:24:47.308Z,13.65
2022-12-26T03:30:08.338Z,12.50
2022-12-26T03:35:15.058Z,12.10
2022-12-26T03:40:43.615Z,11.88
2022-12-26T03:46:13.759Z,13.80
2022-12-26T03:51:51.268Z,14.15
2022-12-26T03:57:15.617Z,12.18
2022-12-26T04:02:40.470Z,13.63
2022-12-26T04:08:05.857Z,12.45
2022-12-26T04:13:35.018Z,12.23
2022-12-26T04:19:09.329Z,12.48
2022-12-26T04:24:36.884Z,11.10
2022-12-26T04:29:58.362Z,12.02
2022-12-26T04:35:45.739Z,12.10
2022-12-26T04:41:10.672Z,11.10
2022-12-26T04:46:14.301Z,11.13
2022-12-26T04:51:17.016Z,13.13
2022-12-26T04:56:19.671Z,11.13
2022-12-26T05:01:40.695Z,10.55
2022-12-26T05:07:02.114Z,11.98
2022-12-26T05:12:08.778Z,10.73
2022-12-26T05:17:32.229Z,11.80
2022-12-26T05:22:55.209Z,10.88
2022-12-26T05:28:16.441Z,11.60
2022-12-26T05:33:37.394Z,11.68
2022-12-26T05:38:39.992Z,10.48
2022-12-26T05:43:42.625Z,10.10
2022-12-26T05:48:45.440Z,10.40
2022-12-26T05:53:48.845Z,10.55
2022-12-26T05:58:56.230Z,11.88
2022-12-26T06:04:00.298Z,10.30
2022-12-26T06:09:03.162Z,11.25
2022-12-26T06:14:05.820Z,10.25
2022-12-26T06:19:08.749Z,11.23
2022-12-26T06:24:11.449Z,11.18
2022-12-26T06:29:14.176Z,11.32
2022-12-26T06:34:18.678Z,9.35
2022-12-26T06:39:21.616Z,12.07
2022-12-26T06:44:24.309Z,12.45
2022-12-26T06:49:32.435Z,10.25
2022-12-26T06:54:35.747Z,10.50
2022-12-26T06:59:38.425Z,9.98
2022-12-26T07:04:41.334Z,10.63
2022-12-26T07:09:43.994Z,9.73
2022-12-26T07:14:47.059Z,10.77
2022-12-26T07:19:49.790Z,11.82
2022-12-26T07:24:52.420Z,11.25
2022-12-26T07:29:55.109Z,8.95
2022-12-26T07:34:57.815Z,10.90
2022-12-26T07:40:00.443Z,10.13
2022-12-26T07:45:03.163Z,10.60
2022-12-26T07:50:06.597Z,9.90
2022-12-26T07:55:09.798Z,9.00
2022-12-26T08:00:12.872Z,10.05
2022-12-26T08:05:16.422Z,10.43
2022-12-26T08:10:19.281Z,10.20
2022-12-26T08:15:22.028Z,10.07
2022-12-26T08:20:24.969Z,10.35
2022-12-26T08:25:28.130Z,10.43
2022-12-26T08:30:30.823Z,10.88
2022-12-26T08:35:37.671Z,11.45
2022-12-26T08:40:44.318Z,9.93
2022-12-26T08:45:47.551Z,11.18
2022-12-26T08:50:56.354Z,12.00
2022-12-26T08:56:00.111Z,10.82
2022-12-26T09:01:20.509Z,11.43
2022-12-26T09:06:23.777Z,11.07
2022-12-26T09:11:27.355Z,13.40
2022-12-26T09:16:37.501Z,11.93
2022-12-26T09:21:41.662Z,12.43
2022-12-26T09:26:44.847Z,11.93
2022-12-26T09:31:47.488Z,11.88
2022-12-26T09:36:50.137Z,12.45
2022-12-26T09:42:18.718Z,10.85
2022-12-26T09:47:30.207Z,10.38
2022-12-26T09:52:55.254Z,11.50
2022-12-26T09:58:01.815Z,14.15
2022-12-26T10:03:05.114Z,12.18
2022-12-26T10:08:26.561Z,11.07
2022-12-26T10:13:38.423Z,10.48
2022-12-26T10:19:02.827Z,12.65
2022-12-26T10:24:14.405Z,12.48
2022-12-26T10:29:29.382Z,11.70
2022-12-26T10:34:40.809Z,10.40
2022-12-26T10:39:49.556Z,10.38
2022-12-26T10:44:52.226Z,10.73
2022-12-26T10:49:55.201Z,11.27
2022-12-26T10:55:28.627Z,11.60
2022-12-26T11:00:25.122Z,11.57
2022-12-26T11:05:48.969Z,10.68
2022-12-26T11:11:14.217Z,10.13
2022-12-26T11:16:26.406Z,12.82
2022-12-26T11:21:30.621Z,11.32
2022-12-26T11:26:33.301Z,9.77
2022-12-26T11:31:36.445Z,11.57
2022-12-26T11:36:40.986Z,10.63
2022-12-26T11:41:46.797Z,11.23
2022-12-26T11:47:15.552Z,9.90
2022-12-26T11:52:47.632Z,9.35
2022-12-26T11:58:06.962Z,8.45
2022-12-26T12:03:17.047Z,11.50
2022-12-26T12:08:25.400Z,10.77
2022-12-26T12:14:11.046Z,11.98
2022-12-26T12:19:13.922Z,10.45
2022-12-26T12:24:29.469Z,10.60
2022-12-26T12:29:57.854Z,8.98
2022-12-26T12:35:23.102Z,10.32
2022-12-26T12:40:34.487Z,12.05
2022-12-26T12:46:07.899Z,11.45
2022-12-26T12:51:29.218Z,11.55
2022-12-26T12:56:41.996Z,9.32
2022-12-26T13:01:48.155Z,8.98
2022-12-26T13:06:57.608Z,9.95
2022-12-26T13:12:06.960Z,9.27
2022-12-26T13:17:22.134Z,8.57
2022-12-26T13:22:50.815Z,9.50
2022-12-26T13:27:55.590Z,9.52
2022-12-26T13:38:01.141Z,6.85
2022-12-26T13:43:33.043Z,8.73
2022-12-26T13:48:38.700Z,10.18
2022-12-26T13:53:42.415Z,8.45
2022-12-26T13:58:54.437Z,10.48
2022-12-26T14:04:09.622Z,9.02
2022-12-26T14:09:24.218Z,8.32
2022-12-26T14:15:06.145Z,9.73
2022-12-26T14:20:17.290Z,8.02
2022-12-26T14:25:24.813Z,6.97
2022-12-26T14:31:03.264Z,9.23
2022-12-26T14:36:06.098Z,8.75
2022-12-26T14:41:34.809Z,7.43
2022-12-26T14:46:39.117Z,8.15
2022-12-26T14:51:41.984Z,8.65
2022-12-26T14:56:44.888Z,9.25
2022-12-26T15:01:50.131Z,8.02
2022-12-26T15:07:05.010Z,9.55
2022-12-26T15:12:19.556Z,9.52
2022-12-26T15:23:04.452Z,10.10
2022-12-26T15:28:28.783Z,9.82
2022-12-26T15:33:41.447Z,9.10
2022-12-26T15:38:56.102Z,11.48
2022-12-26T15:44:20.397Z,11.63
2022-12-26T15:49:43.269Z,10.60
2022-12-26T15:55:11.123Z,10.73
2022-12-26T16:00:26.371Z,11.35
2022-12-26T16:10:36.726Z,9.23
2022-12-26T16:15:48.807Z,8.47
2022-12-26T16:21:11.287Z,7.57
2022-12-26T16:26:25.553Z,8.07
2022-12-26T16:31:31.461Z,11.25
2022-12-26T16:36:36.916Z,7.10
2022-12-26T16:41:57.997Z,9.30
2022-12-26T16:47:13.544Z,7.97
2022-12-26T16:52:45.827Z,9.23
2022-12-26T16:57:51.409Z,9.13
2022-12-26T17:02:56.887Z,8.60
2022-12-26T17:08:04.227Z,7.70
2022-12-26T17:13:09.947Z,8.48
2022-12-26T17:18:45.309Z,10.07
2022-12-26T17:24:20.633Z,7.72
2022-12-26T17:29:55.386Z,7.97
2022-12-26T17:35:06.445Z,6.15
2022-12-26T17:40:15.012Z,6.70
2022-12-26T17:45:20.943Z,8.68
2022-12-26T17:50:35.652Z,7.70
2022-12-26T17:55:38.487Z,7.55
2022-12-26T18:00:42.245Z,5.75
2022-12-26T18:05:46.584Z,7.77
2022-12-26T18:10:49.354Z,8.27
2022-12-26T18:15:52.898Z,9.43
2022-12-26T18:20:55.706Z,7.20
2022-12-26T18:26:01.235Z,6.72
2022-12-26T18:31:04.187Z,6.10
2022-12-26T18:36:07.908Z,10.05
2022-12-26T18:41:15.509Z,7.20
2022-12-26T18:46:23.750Z,8.55
2022-12-26T18:51:28.248Z,7.88
2022-12-26T18:56:30.990Z,8.30
2022-12-26T19:01:33.777Z,8.00
2022-12-26T19:06:36.494Z,7.10
2022-12-26T19:11:39.985Z,10.57
2022-12-26T19:16:42.682Z,5.50
2022-12-26T19:21:45.548Z,7.10
2022-12-26T19:26:48.135Z,7.88
2022-12-26T19:31:50.897Z,6.72
2022-12-26T19:36:53.567Z,8.63
2022-12-26T19:41:56.199Z,7.90
2022-12-26T19:47:10.952Z,6.10
2022-12-26T19:52:15.498Z,7.53
2022-12-26T19:57:18.342Z,7.63
2022-12-26T20:02:21.267Z,6.82
2022-12-26T20:07:24.122Z,7.07
2022-12-26T20:12:26.897Z,6.95
2022-12-26T20:17:29.551Z,5.80
2022-12-26T20:22:32.295Z,5.47
2022-12-26T20:27:35.092Z,6.60
2022-12-26T20:32:37.761Z,7.60
2022-12-26T20:37:40.512Z,6.20
2022-12-26T20:42:43.213Z,5.50
2022-12-26T20:47:46.011Z,6.80
2022-12-26T20:52:48.729Z,5.88
2022-12-26T20:57:51.385Z,5.53
2022-12-26T21:02:54.212Z,7.13
2022-12-26T21:07:57.091Z,6.40
2022-12-26T21:12:59.758Z,6.88
2022-12-26T21:18:03.301Z,7.25
2022-12-26T21:23:06.139Z,6.70
2022-12-26T21:28:08.768Z,6.90
2022-12-26T21:33:11.430Z,7.47
2022-12-26T21:38:14.229Z,6.30
2022-12-26T21:43:17.388Z,7.32
2022-12-26T21:48:20.130Z,6.90
2022-12-26T21:53:22.849Z,5.43
2022-12-26T21:58:25.536Z,6.28
2022-12-26T22:03:46.629Z,9.02
2022-12-26T22:08:49.384Z,6.57
2022-12-26T22:13:52.016Z,4.90
2022-12-26T22:18:56.712Z,5.53
2022-12-26T22:24:00.035Z,7.70
2022-12-26T22:29:02.756Z,6.50
2022-12-26T22:34:07.692Z,6.32
2022-12-26T22:39:13.825Z,6.25
2022-12-26T22:44:16.482Z,5.72
2022-12-26T22:49:19.275Z,5.43
2022-12-26T22:54:21.973Z,4.97
2022-12-26T22:59:58.120Z,6.28
2022-12-26T23:04:47.695Z,5.35
2022-12-26T23:09:50.587Z,7.00
2022-12-26T23:14:53.408Z,6.05
2022-12-26T23:20:14.667Z,5.78
2022-12-26T23:25:17.506Z,6.55
2022-12-26T23:30:20.321Z,7.00
2022-12-26T23:35:23.940Z,7.00
2022-12-26T23:40:26.669Z,7.38
2022-12-26T23:45:29.839Z,7.10
2022-12-26T23:50:32.401Z,8.17
2022-12-26T23:55:35.231Z,4.82
